createdAt,value
2022-09-26T00:00:24.888Z,374.2092
2022-09-26T00:05:26.520Z,120.39305
2022-09-26T00:10:28.217Z,144.8452
2022-09-26T00:15:29.841Z,140.25295
2022-09-26T00:20:31.443Z,137.3759
2022-09-26T00:25:33.067Z,129.85145
2022-09-26T00:30:34.795Z,121.16515
2022-09-26T00:35:36.443Z,115.9644
2022-09-26T00:40:38.061Z,105.87665
2022-09-26T00:45:39.810Z,98.90555
2022-09-26T00:50:41.494Z,90.4037
2022-09-26T00:55:43.107Z,76.4615
2022-09-26T01:00:44.711Z,72.4226
2022-09-26T01:05:46.337Z,66.4289
2022-09-26T01:10:48.071Z,55.97225
2022-09-26T01:15:49.644Z,48.26335
2022-09-26T01:20:51.308Z,41.90075
2022-09-26T01:25:52.925Z,32.23705
2022-09-26T01:30:54.597Z,21.7804
2022-09-26T01:35:56.237Z,14.62485
2022-09-26T01:40:57.868Z,9.60855
2022-09-26T01:45:59.602Z,5.7541
2022-09-26T01:51:01.277Z,2.13325
2022-09-26T01:56:02.908Z,1.2444
2022-09-26T02:01:04.592Z,0.47405
2022-09-26T02:06:06.277Z,1.16185
2022-09-26T02:11:07.863Z,0
2022-09-26T02:16:09.509Z,0
2022-09-26T02:21:11.162Z,0
2022-09-26T02:26:12.816Z,0
2022-09-26T02:31:14.671Z,0
2022-09-26T02:36:16.288Z,0
2022-09-26T02:41:18.258Z,0
2022-09-26T02:46:20.003Z,0
2022-09-26T02:51:21.656Z,0
2022-09-26T02:56:23.271Z,0
2022-09-26T03:01:24.959Z,0
2022-09-26T03:06:26.648Z,0
2022-09-26T03:11:28.245Z,0
2022-09-26T03:16:29.868Z,0
2022-09-26T03:21:36.186Z,0
2022-09-26T03:26:38.865Z,0
2022-09-26T03:31:40.607Z,0
2022-09-26T03:36:42.311Z,0
2022-09-26T03:41:44.255Z,0
2022-09-26T03:46:45.830Z,0
2022-09-26T03:51:47.453Z,0
2022-09-26T03:56:49.068Z,0
2022-09-26T04:01:50.708Z,0
2022-09-26T04:06:52.342Z,0
2022-09-26T04:11:53.934Z,0
2022-09-26T04:16:55.562Z,0
2022-09-26T04:21:57.242Z,0
2022-09-26T04:26:58.815Z,0
2022-09-26T04:32:00.787Z,0
2022-09-26T04:37:02.505Z,0
2022-09-26T04:42:04.147Z,0
2022-09-26T04:47:05.816Z,0
2022-09-26T04:52:07.460Z,0
2022-09-26T04:57:09.217Z,0
2022-09-26T05:02:11.006Z,0
2022-09-26T05:07:12.686Z,0
2022-09-26T05:12:14.282Z,0
2022-09-26T05:17:16.123Z,0
2022-09-26T05:22:17.725Z,0
2022-09-26T05:27:19.420Z,0
2022-09-26T05:32:21.058Z,0
2022-09-26T05:37:22.673Z,0
2022-09-26T05:42:24.261Z,0
2022-09-26T05:47:25.894Z,0
2022-09-26T05:52:27.478Z,0
2022-09-26T05:57:29.098Z,0
2022-09-26T06:02:30.739Z,0
2022-09-26T06:07:32.349Z,0
2022-09-26T06:12:33.958Z,0
2022-09-26T06:17:35.546Z,0
2022-09-26T06:22:37.184Z,0
2022-09-26T06:27:38.786Z,0
2022-09-26T06:32:40.413Z,0
2022-09-26T06:37:42.057Z,0
2022-09-26T06:42:43.626Z,0
2022-09-26T06:47:45.248Z,0
2022-09-26T06:52:46.844Z,0
2022-09-26T06:57:48.437Z,0
2022-09-26T07:02:50.064Z,0
2022-09-26T07:07:51.665Z,0
2022-09-26T07:12:53.262Z,0
2022-09-26T07:17:54.858Z,0
2022-09-26T07:22:56.460Z,0
2022-09-26T07:27:58.095Z,0
2022-09-26T07:32:59.709Z,0
2022-09-26T07:38:01.339Z,0
2022-09-26T07:43:19.637Z,0
2022-09-26T07:48:21.999Z,0
2022-09-26T07:53:23.607Z,0
2022-09-26T07:58:25.306Z,0
2022-09-26T08:03:26.902Z,0
2022-09-26T08:08:28.544Z,0
2022-09-26T08:13:30.151Z,0
2022-09-26T08:18:31.794Z,0
2022-09-26T08:23:33.415Z,0
2022-09-26T08:28:34.996Z,0
2022-09-26T08:33:36.609Z,0
2022-09-26T08:38:38.181Z,0
2022-09-26T08:43:39.790Z,0
2022-09-26T08:48:41.398Z,0
2022-09-26T08:53:42.975Z,0
2022-09-26T08:58:44.549Z,0
2022-09-26T09:03:46.165Z,0
2022-09-26T09:08:47.779Z,0
2022-09-26T09:13:49.401Z,0
2022-09-26T09:18:51.028Z,0
2022-09-26T09:23:52.668Z,0
2022-09-26T09:28:54.308Z,0
2022-09-26T09:33:55.893Z,0
2022-09-26T09:38:57.533Z,0
2022-09-26T09:43:59.134Z,0
2022-09-26T09:49:00.715Z,0
2022-09-26T09:54:02.291Z,0
2022-09-26T09:59:03.912Z,0
2022-09-26T10:04:05.766Z,0
2022-09-26T10:09:36.480Z,0
2022-09-26T10:14:41.471Z,0
2022-09-26T10:19:43.029Z,0
2022-09-26T10:24:44.772Z,0
2022-09-26T10:29:46.370Z,0
2022-09-26T10:34:48.129Z,0
2022-09-26T10:39:49.754Z,0
2022-09-26T10:44:51.319Z,0
2022-09-26T10:49:52.925Z,0
2022-09-26T10:54:54.663Z,0
2022-09-26T10:59:56.273Z,0
2022-09-26T11:04:57.892Z,0
2022-09-26T11:09:59.473Z,0
2022-09-26T11:15:01.095Z,0
2022-09-26T11:20:03.523Z,0
2022-09-26T11:25:05.266Z,0
2022-09-26T11:30:06.835Z,0
2022-09-26T11:35:08.451Z,0
2022-09-26T11:40:10.237Z,0
2022-09-26T11:45:11.914Z,0
2022-09-26T11:50:13.665Z,0
2022-09-26T11:55:15.296Z,0
2022-09-26T12:00:16.912Z,0
2022-09-26T12:05:18.510Z,0
2022-09-26T12:10:20.108Z,0
2022-09-26T12:15:21.703Z,0
2022-09-26T12:20:23.312Z,0
2022-09-26T12:25:24.929Z,0
2022-09-26T12:30:26.605Z,0
2022-09-26T12:35:28.196Z,0
2022-09-26T12:40:29.844Z,0
2022-09-26T12:45:31.577Z,0
2022-09-26T12:50:33.196Z,0
2022-09-26T12:55:34.888Z,0
2022-09-26T13:00:36.519Z,0
2022-09-26T13:05:38.128Z,0
2022-09-26T13:10:39.745Z,0
2022-09-26T13:15:41.395Z,0
2022-09-26T13:20:43.021Z,1.16185
2022-09-26T13:25:49.264Z,0.8296
2022-09-26T13:30:51.468Z,1.83695
2022-09-26T13:35:53.145Z,3.49615
2022-09-26T13:40:54.825Z,5.6887
2022-09-26T13:45:56.556Z,7.28865
2022-09-26T13:50:58.251Z,15.1782
2022-09-26T13:55:59.901Z,22.33375
2022-09-26T14:01:01.548Z,23.256
2022-09-26T14:06:03.171Z,35.483
2022-09-26T14:11:04.822Z,40.31485
2022-09-26T14:16:06.520Z,53.3348
2022-09-26T14:21:08.210Z,57.9822
2022-09-26T14:26:09.820Z,68.06995
2022-09-26T14:31:11.575Z,75.04105
2022-09-26T14:36:13.241Z,74.7463
2022-09-26T14:41:14.874Z,78.5646
2022-09-26T14:46:16.522Z,482.2361
2022-09-26T14:51:18.185Z,220.73335
2022-09-26T14:56:19.793Z,213.02955
2022-09-26T15:01:21.540Z,177.94955
2022-09-26T15:06:23.206Z,193.9488
2022-09-26T15:11:24.797Z,209.05925
2022-09-26T15:16:26.461Z,207.22215
2022-09-26T15:21:28.185Z,204.7335
2022-09-26T15:26:29.809Z,224.52535
2022-09-26T15:31:31.561Z,230.2733
2022-09-26T15:36:33.250Z,244.0802
2022-09-26T15:41:34.894Z,281.768
2022-09-26T15:46:36.647Z,325.73715
2022-09-26T15:51:38.365Z,344.99575
2022-09-26T15:56:40.053Z,335.92915
2022-09-26T16:01:41.760Z,345.588
2022-09-26T16:06:43.398Z,369.70585
2022-09-26T16:11:45.045Z,389.97185
2022-09-26T16:16:46.662Z,376.1646
2022-09-26T16:21:48.281Z,402.11935
2022-09-26T16:26:49.870Z,421.25925
2022-09-26T16:31:51.468Z,439.51045
2022-09-26T16:36:53.125Z,445.0213
2022-09-26T16:42:01.295Z,448.99145
2022-09-26T16:47:04.368Z,453.61355
2022-09-26T16:52:05.950Z,451.89495
2022-09-26T16:57:07.579Z,462.2058
2022-09-26T17:02:09.195Z,468.13145
2022-09-26T17:07:10.778Z,472.69425
2022-09-26T17:12:12.401Z,472.39795
2022-09-26T17:17:14.030Z,471.6275
2022-09-26T17:22:15.662Z,490.64915
2022-09-26T17:27:17.283Z,536.3368
2022-09-26T17:32:18.903Z,573.90605
2022-09-26T17:37:20.546Z,616.74925
2022-09-26T17:42:22.177Z,664.6294
2022-09-26T17:47:23.795Z,698.9989
2022-09-26T17:52:25.411Z,727.6797
2022-09-26T17:57:27.039Z,738.4646
2022-09-26T18:02:28.665Z,744.33115
2022-09-26T18:07:30.371Z,739.94615
2022-09-26T18:12:32.028Z,713.3395
2022-09-26T18:17:33.614Z,660.83715
2022-09-26T18:22:35.251Z,617.22345
2022-09-26T18:27:36.950Z,578.5281
2022-09-26T18:32:38.539Z,572.0689
2022-09-26T18:37:40.095Z,554.9435
2022-09-26T18:42:41.726Z,543.9808
2022-09-26T18:47:43.380Z,553.5805
2022-09-26T18:52:45.014Z,561.2248
2022-09-26T18:57:46.711Z,559.9211
2022-09-26T19:02:48.515Z,561.52095
2022-09-26T19:07:50.133Z,565.78755
2022-09-26T19:12:51.775Z,561.284
2022-09-26T19:17:53.380Z,554.5286
2022-09-26T19:22:54.965Z,544.75115
2022-09-26T19:27:56.553Z,532.12915
2022-09-26T19:32:58.156Z,531.95135
2022-09-26T19:37:59.771Z,548.54345
2022-09-26T19:43:01.363Z,573.4317
2022-09-26T19:48:03.051Z,604.24585
2022-09-26T19:53:04.708Z,619.23805
2022-09-26T19:58:06.303Z,629.7267
2022-09-26T20:03:07.981Z,633.46
2022-09-26T20:08:09.690Z,641.04505
2022-09-26T20:13:11.350Z,555.4185
2022-09-26T20:18:12.940Z,532.5451
2022-09-26T20:23:14.570Z,627.77135
2022-09-26T20:28:16.186Z,599.3872
2022-09-26T20:33:17.775Z,652.3631
2022-09-26T20:38:19.365Z,656.21495
2022-09-26T20:43:20.967Z,655.8001
2022-09-26T20:48:22.585Z,682.4659
2022-09-26T20:53:24.148Z,474.53255
2022-09-26T20:58:25.765Z,538.29315
2022-09-26T21:03:27.485Z,723.59035
2022-09-26T21:08:29.065Z,728.39015
2022-09-26T21:13:30.677Z,579.121
2022-09-26T21:18:32.292Z,542.61865
2022-09-26T21:23:33.997Z,288.10915
2022-09-26T21:28:35.585Z,275.0725
2022-09-26T21:33:37.223Z,408.816
2022-09-26T21:38:38.819Z,272.7614
2022-09-26T21:43:40.426Z,425.7043
2022-09-26T21:48:42.022Z,383.691
2022-09-26T21:53:43.621Z,586.05455
2022-09-26T21:58:45.230Z,870.13375
2022-09-26T22:03:46.865Z,472.39925
2022-09-26T22:08:48.444Z,860.77125
2022-09-26T22:13:50.245Z,398.97965
2022-09-26T22:18:51.877Z,450.2371
2022-09-26T22:23:53.457Z,460.37
2022-09-26T22:28:55.058Z,415.09745
2022-09-26T22:33:56.675Z,412.5493
2022-09-26T22:38:58.307Z,548.84105
2022-09-26T22:43:59.940Z,871.4963
2022-09-26T22:49:01.644Z,874.16275
2022-09-26T22:54:03.283Z,818.28315
2022-09-26T22:59:04.869Z,765.722
2022-09-26T23:04:06.537Z,732.18245
2022-09-26T23:09:08.213Z,700.065
2022-09-26T23:14:09.870Z,691.6505
2022-09-26T23:19:11.498Z,681.7544
2022-09-26T23:24:13.048Z,635.47425
2022-09-26T23:29:14.714Z,565.1361
2022-09-26T23:34:16.317Z,151.13735
2022-09-26T23:39:17.916Z,139.02065
2022-09-26T23:44:19.566Z,142.24945
2022-09-26T23:49:21.167Z,149.3517
2022-09-26T23:54:22.846Z,238.5105
2022-09-26T23:59:24.468Z,191.1641
